sensor_id;sensor_type;location;lat;lon;timestamp;temperature;humidity
12315;DHT22;23886;46.614;14.276;2022-11-18T00:02:22;5.70;99.90
12315;DHT22;23886;46.614;14.276;2022-11-18T00:04:49;5.80;99.90
12315;DHT22;23886;46.614;14.276;2022-11-18T00:07:16;5.80;99.90
12315;DHT22;23886;46.614;14.276;2022-11-18T00:09:44;5.80;99.90
12315;DHT22;23886;46.614;14.276;2022-11-18T00:12:11;5.80;99.90
12315;DHT22;23886;46.614;14.276;2022-11-18T00:14:56;5.80;99.90
12315;DHT22;23886;46.614;14.276;2022-11-18T00:17:23;5.80;99.90
12315;DHT22;23886;46.614;14.276;2022-11-18T00:19:50;5.80;99.90
12315;DHT22;23886;46.614;14.276;2022-11-18T00:22:17;5.90;99.90
12315;DHT22;23886;46.614;14.276;2022-11-18T00:24:44;6.00;99.90
12315;DHT22;23886;46.614;14.276;2022-11-18T00:27:11;6.00;99.90
12315;DHT22;23886;46.614;14.276;2022-11-18T00:29:38;6.00;99.90
12315;DHT22;23886;46.614;14.276;2022-11-18T00:32:06;6.10;99.90
12315;DHT22;23886;46.614;14.276;2022-11-18T00:34:33;6.10;99.90
12315;DHT22;23886;46.614;14.276;2022-11-18T00:37:00;6.20;99.90
12315;DHT22;23886;46.614;14.276;2022-11-18T00:39:27;6.20;99.90
12315;DHT22;23886;46.614;14.276;2022-11-18T00:41:54;6.30;99.90
12315;DHT22;23886;46.614;14.276;2022-11-18T00:44:39;6.20;99.90
12315;DHT22;23886;46.614;14.276;2022-11-18T00:47:07;6.20;99.90
12315;DHT22;23886;46.614;14.276;2022-11-18T00:49:34;6.30;99.90
12315;DHT22;23886;46.614;14.276;2022-11-18T00:52:01;6.30;99.90
12315;DHT22;23886;46.614;14.276;2022-11-18T00:54:28;6.40;99.90
12315;DHT22;23886;46.614;14.276;2022-11-18T00:56:55;6.30;99.90
12315;DHT22;23886;46.614;14.276;2022-11-18T00:59:22;6.20;99.90
12315;DHT22;23886;46.614;14.276;2022-11-18T01:01:49;6.20;99.90
12315;DHT22;23886;46.614;14.276;2022-11-18T01:04:17;6.30;99.90
12315;DHT22;23886;46.614;14.276;2022-11-18T01:06:44;6.30;99.90
12315;DHT22;23886;46.614;14.276;2022-11-18T01:09:11;6.30;99.90
12315;DHT22;23886;46.614;14.276;2022-11-18T01:11:38;6.40;99.90
12315;DHT22;23886;46.614;14.276;2022-11-18T01:14:23;6.40;99.90
12315;DHT22;23886;46.614;14.276;2022-11-18T01:16:53;6.50;99.90
12315;DHT22;23886;46.614;14.276;2022-11-18T01:19:21;6.50;99.90
12315;DHT22;23886;46.614;14.276;2022-11-18T01:21:49;6.50;99.90
12315;DHT22;23886;46.614;14.276;2022-11-18T01:24:16;6.40;99.90
12315;DHT22;23886;46.614;14.276;2022-11-18T01:26:43;6.40;99.90
12315;DHT22;23886;46.614;14.276;2022-11-18T01:29:10;6.40;99.90
12315;DHT22;23886;46.614;14.276;2022-11-18T01:31:37;6.50;99.90
12315;DHT22;23886;46.614;14.276;2022-11-18T01:34:04;6.50;99.90
12315;DHT22;23886;46.614;14.276;2022-11-18T01:36:32;6.40;99.90
12315;DHT22;23886;46.614;14.276;2022-11-18T01:38:59;6.40;99.90
12315;DHT22;23886;46.614;14.276;2022-11-18T01:41:27;6.30;99.90
12315;DHT22;23886;46.614;14.276;2022-11-18T01:43:55;6.30;99.90
12315;DHT22;23886;46.614;14.276;2022-11-18T01:46:25;6.30;99.90
12315;DHT22;23886;46.614;14.276;2022-11-18T01:48:54;6.30;99.90
12315;DHT22;23886;46.614;14.276;2022-11-18T01:51:24;6.30;99.90
12315;DHT22;23886;46.614;14.276;2022-11-18T01:53:58;6.30;99.90
12315;DHT22;23886;46.614;14.276;2022-11-18T01:56:29;6.30;99.90
12315;DHT22;23886;46.614;14.276;2022-11-18T01:59:02;6.40;99.90
12315;DHT22;23886;46.614;14.276;2022-11-18T02:01:31;6.30;99.90
12315;DHT22;23886;46.614;14.276;2022-11-18T02:03:58;6.40;99.90
12315;DHT22;23886;46.614;14.276;2022-11-18T02:06:25;6.50;99.90
12315;DHT22;23886;46.614;14.276;2022-11-18T02:08:54;6.60;99.90
12315;DHT22;23886;46.614;14.276;2022-11-18T02:11:21;6.50;99.90
12315;DHT22;23886;46.614;14.276;2022-11-18T02:14:07;6.50;99.90
12315;DHT22;23886;46.614;14.276;2022-11-18T02:16:51;6.50;99.90
12315;DHT22;23886;46.614;14.276;2022-11-18T02:19:57;6.50;99.90
12315;DHT22;23886;46.614;14.276;2022-11-18T02:22:40;6.50;99.90
12315;DHT22;23886;46.614;14.276;2022-11-18T02:25:17;6.40;99.90
12315;DHT22;23886;46.614;14.276;2022-11-18T02:28:00;6.40;99.90
12315;DHT22;23886;46.614;14.276;2022-11-18T02:30:36;6.50;99.90
12315;DHT22;23886;46.614;14.276;2022-11-18T02:33:09;6.50;99.90
12315;DHT22;23886;46.614;14.276;2022-11-18T02:35:39;6.50;99.90
12315;DHT22;23886;46.614;14.276;2022-11-18T02:38:10;6.60;99.90
12315;DHT22;23886;46.614;14.276;2022-11-18T02:40:40;6.60;99.90
12315;DHT22;23886;46.614;14.276;2022-11-18T02:43:12;6.60;99.90
12315;DHT22;23886;46.614;14.276;2022-11-18T02:45:45;6.60;99.90
12315;DHT22;23886;46.614;14.276;2022-11-18T02:48:15;6.60;99.90
12315;DHT22;23886;46.614;14.276;2022-11-18T02:50:44;6.50;99.90
12315;DHT22;23886;46.614;14.276;2022-11-18T02:53:15;6.50;99.90
12315;DHT22;23886;46.614;14.276;2022-11-18T02:55:45;6.50;99.90
12315;DHT22;23886;46.614;14.276;2022-11-18T02:58:14;6.50;99.90
12315;DHT22;23886;46.614;14.276;2022-11-18T03:00:44;6.50;99.90
12315;DHT22;23886;46.614;14.276;2022-11-18T03:03:24;6.50;99.90
12315;DHT22;23886;46.614;14.276;2022-11-18T03:06:00;6.50;99.90
12315;DHT22;23886;46.614;14.276;2022-11-18T03:08:31;6.40;99.90
12315;DHT22;23886;46.614;14.276;2022-11-18T03:11:06;6.30;99.90
12315;DHT22;23886;46.614;14.276;2022-11-18T03:13:37;6.30;99.90
12315;DHT22;23886;46.614;14.276;2022-11-18T03:16:12;6.30;99.90
12315;DHT22;23886;46.614;14.276;2022-11-18T03:18:43;6.30;99.90
12315;DHT22;23886;46.614;14.276;2022-11-18T03:21:17;6.30;99.90
12315;DHT22;23886;46.614;14.276;2022-11-18T03:23:52;6.30;99.90
12315;DHT22;23886;46.614;14.276;2022-11-18T03:26:24;6.30;99.90
12315;DHT22;23886;46.614;14.276;2022-11-18T03:28:57;6.40;99.90
12315;DHT22;23886;46.614;14.276;2022-11-18T03:31:30;6.40;99.90
12315;DHT22;23886;46.614;14.276;2022-11-18T03:34:06;6.30;99.90
12315;DHT22;23886;46.614;14.276;2022-11-18T03:36:37;6.30;99.90
12315;DHT22;23886;46.614;14.276;2022-11-18T03:39:08;6.30;99.90
12315;DHT22;23886;46.614;14.276;2022-11-18T03:41:39;6.30;99.90
12315;DHT22;23886;46.614;14.276;2022-11-18T03:44:12;6.30;99.90
12315;DHT22;23886;46.614;14.276;2022-11-18T03:46:43;6.30;99.90
12315;DHT22;23886;46.614;14.276;2022-11-18T03:49:16;6.40;99.90
12315;DHT22;23886;46.614;14.276;2022-11-18T03:51:48;6.30;99.90
12315;DHT22;23886;46.614;14.276;2022-11-18T03:54:19;6.30;99.90
12315;DHT22;23886;46.614;14.276;2022-11-18T03:56:55;6.30;99.90
12315;DHT22;23886;46.614;14.276;2022-11-18T03:59:25;6.30;99.90
12315;DHT22;23886;46.614;14.276;2022-11-18T04:02:00;6.30;99.90
12315;DHT22;23886;46.614;14.276;2022-11-18T04:04:29;6.40;99.90
12315;DHT22;23886;46.614;14.276;2022-11-18T04:07:02;6.40;99.90
12315;DHT22;23886;46.614;14.276;2022-11-18T04:09:33;6.40;99.90
12315;DHT22;23886;46.614;14.276;2022-11-18T04:12:03;6.30;99.90
12315;DHT22;23886;46.614;14.276;2022-11-18T04:14:32;6.20;99.90
12315;DHT22;23886;46.614;14.276;2022-11-18T04:17:05;6.20;99.90
12315;DHT22;23886;46.614;14.276;2022-11-18T04:19:33;6.20;99.90
12315;DHT22;23886;46.614;14.276;2022-11-18T04:22:00;6.20;99.90
12315;DHT22;23886;46.614;14.276;2022-11-18T04:24:27;6.20;99.90
12315;DHT22;23886;46.614;14.276;2022-11-18T04:26:54;6.20;99.90
12315;DHT22;23886;46.614;14.276;2022-11-18T04:29:21;6.30;99.90
12315;DHT22;23886;46.614;14.276;2022-11-18T04:31:48;6.30;99.90
12315;DHT22;23886;46.614;14.276;2022-11-18T04:34:17;6.20;99.90
12315;DHT22;23886;46.614;14.276;2022-11-18T04:36:44;6.20;99.90
12315;DHT22;23886;46.614;14.276;2022-11-18T04:39:11;6.30;99.90
12315;DHT22;23886;46.614;14.276;2022-11-18T04:41:38;6.40;99.90
12315;DHT22;23886;46.614;14.276;2022-11-18T04:44:24;6.40;99.90
12315;DHT22;23886;46.614;14.276;2022-11-18T04:46:51;6.30;99.90
12315;DHT22;23886;46.614;14.276;2022-11-18T04:51:47;6.40;99.90
12315;DHT22;23886;46.614;14.276;2022-11-18T04:54:15;6.30;99.90
12315;DHT22;23886;46.614;14.276;2022-11-18T04:56:43;6.30;99.90
12315;DHT22;23886;46.614;14.276;2022-11-18T04:59:10;6.40;99.90
12315;DHT22;23886;46.614;14.276;2022-11-18T05:01:38;6.30;99.90
12315;DHT22;23886;46.614;14.276;2022-11-18T05:04:05;6.30;99.90
12315;DHT22;23886;46.614;14.276;2022-11-18T05:06:34;6.30;99.90
12315;DHT22;23886;46.614;14.276;2022-11-18T05:09:02;6.50;99.90
12315;DHT22;23886;46.614;14.276;2022-11-18T05:11:29;6.40;99.90
12315;DHT22;23886;46.614;14.276;2022-11-18T05:14:13;6.40;99.90
12315;DHT22;23886;46.614;14.276;2022-11-18T05:16:40;6.40;99.90
12315;DHT22;23886;46.614;14.276;2022-11-18T05:19:08;6.40;99.90
12315;DHT22;23886;46.614;14.276;2022-11-18T05:21:36;6.50;99.90
12315;DHT22;23886;46.614;14.276;2022-11-18T05:24:03;6.40;99.90
12315;DHT22;23886;46.614;14.276;2022-11-18T05:26:31;6.40;99.90
12315;DHT22;23886;46.614;14.276;2022-11-18T05:28:58;6.40;99.90
12315;DHT22;23886;46.614;14.276;2022-11-18T05:31:25;6.50;99.90
12315;DHT22;23886;46.614;14.276;2022-11-18T05:33:52;6.50;99.90
12315;DHT22;23886;46.614;14.276;2022-11-18T05:36:19;6.50;99.90
12315;DHT22;23886;46.614;14.276;2022-11-18T05:38:48;6.50;99.90
12315;DHT22;23886;46.614;14.276;2022-11-18T05:41:15;6.60;99.90
12315;DHT22;23886;46.614;14.276;2022-11-18T05:43:56;6.60;99.90
12315;DHT22;23886;46.614;14.276;2022-11-18T05:46:24;6.60;99.90
12315;DHT22;23886;46.614;14.276;2022-11-18T05:48:51;6.50;99.90
12315;DHT22;23886;46.614;14.276;2022-11-18T05:51:18;6.40;99.90
12315;DHT22;23886;46.614;14.276;2022-11-18T05:53:45;6.50;99.90
12315;DHT22;23886;46.614;14.276;2022-11-18T05:56:19;6.50;99.90
12315;DHT22;23886;46.614;14.276;2022-11-18T05:58:48;6.50;99.90
12315;DHT22;23886;46.614;14.276;2022-11-18T06:01:17;6.40;99.90
12315;DHT22;23886;46.614;14.276;2022-11-18T06:03:45;6.50;99.90
12315;DHT22;23886;46.614;14.276;2022-11-18T06:06:13;6.50;99.90
12315;DHT22;23886;46.614;14.276;2022-11-18T06:08:43;6.50;99.90
12315;DHT22;23886;46.614;14.276;2022-11-18T06:11:13;6.50;99.90
12315;DHT22;23886;46.614;14.276;2022-11-18T06:13:47;6.40;99.90
12315;DHT22;23886;46.614;14.276;2022-11-18T06:16:16;6.50;99.90
12315;DHT22;23886;46.614;14.276;2022-11-18T06:18:44;6.40;99.90
12315;DHT22;23886;46.614;14.276;2022-11-18T06:21:11;6.40;99.90
12315;DHT22;23886;46.614;14.276;2022-11-18T06:23:39;6.40;99.90
12315;DHT22;23886;46.614;14.276;2022-11-18T06:26:07;6.50;99.90
12315;DHT22;23886;46.614;14.276;2022-11-18T06:28:37;6.40;99.90
12315;DHT22;23886;46.614;14.276;2022-11-18T06:31:06;6.40;99.90
12315;DHT22;23886;46.614;14.276;2022-11-18T06:33:33;6.40;99.90
12315;DHT22;23886;46.614;14.276;2022-11-18T06:36:00;6.50;99.90
12315;DHT22;23886;46.614;14.276;2022-11-18T06:38:27;6.60;99.90
12315;DHT22;23886;46.614;14.276;2022-11-18T06:40:58;6.70;99.90
12315;DHT22;23886;46.614;14.276;2022-11-18T06:43:26;6.70;99.90
12315;DHT22;23886;46.614;14.276;2022-11-18T06:46:09;6.80;99.90
12315;DHT22;23886;46.614;14.276;2022-11-18T06:48:54;6.80;99.90
12315;DHT22;23886;46.614;14.276;2022-11-18T06:51:21;6.70;99.90
12315;DHT22;23886;46.614;14.276;2022-11-18T06:53:48;6.80;99.90
12315;DHT22;23886;46.614;14.276;2022-11-18T06:56:16;6.90;99.90
12315;DHT22;23886;46.614;14.276;2022-11-18T06:58:44;6.90;99.90
12315;DHT22;23886;46.614;14.276;2022-11-18T07:01:14;6.80;99.90
12315;DHT22;23886;46.614;14.276;2022-11-18T07:03:42;6.80;99.90
12315;DHT22;23886;46.614;14.276;2022-11-18T07:06:11;6.70;99.90
12315;DHT22;23886;46.614;14.276;2022-11-18T07:08:39;6.80;99.90
12315;DHT22;23886;46.614;14.276;2022-11-18T07:11:08;6.80;99.90
12315;DHT22;23886;46.614;14.276;2022-11-18T07:13:35;6.80;99.90
12315;DHT22;23886;46.614;14.276;2022-11-18T07:16:04;6.80;99.90
12315;DHT22;23886;46.614;14.276;2022-11-18T07:18:34;6.70;99.90
12315;DHT22;23886;46.614;14.276;2022-11-18T07:21:02;6.70;99.90
12315;DHT22;23886;46.614;14.276;2022-11-18T07:23:30;6.70;99.90
12315;DHT22;23886;46.614;14.276;2022-11-18T07:25:57;6.70;99.90
12315;DHT22;23886;46.614;14.276;2022-11-18T07:28:25;6.80;99.90
12315;DHT22;23886;46.614;14.276;2022-11-18T07:30:52;6.80;99.90
12315;DHT22;23886;46.614;14.276;2022-11-18T07:33:19;6.80;99.90
12315;DHT22;23886;46.614;14.276;2022-11-18T07:35:47;6.70;99.90
12315;DHT22;23886;46.614;14.276;2022-11-18T07:38:14;6.70;99.90
12315;DHT22;23886;46.614;14.276;2022-11-18T07:40:41;6.70;99.90
12315;DHT22;23886;46.614;14.276;2022-11-18T07:43:08;6.70;99.90
12315;DHT22;23886;46.614;14.276;2022-11-18T07:45:35;6.70;99.90
12315;DHT22;23886;46.614;14.276;2022-11-18T07:48:02;6.80;99.90
12315;DHT22;23886;46.614;14.276;2022-11-18T07:50:29;6.80;99.90
12315;DHT22;23886;46.614;14.276;2022-11-18T07:52:58;6.90;99.90
12315;DHT22;23886;46.614;14.276;2022-11-18T07:55:25;6.90;99.90
12315;DHT22;23886;46.614;14.276;2022-11-18T07:57:52;7.00;99.90
12315;DHT22;23886;46.614;14.276;2022-11-18T08:00:21;7.00;99.90
12315;DHT22;23886;46.614;14.276;2022-11-18T08:02:49;7.00;99.90
12315;DHT22;23886;46.614;14.276;2022-11-18T08:05:16;7.00;99.90
12315;DHT22;23886;46.614;14.276;2022-11-18T08:07:43;7.00;99.90
12315;DHT22;23886;46.614;14.276;2022-11-18T08:10:11;6.90;99.90
12315;DHT22;23886;46.614;14.276;2022-11-18T08:12:38;6.90;99.90
12315;DHT22;23886;46.614;14.276;2022-11-18T08:15:06;6.90;99.90
12315;DHT22;23886;46.614;14.276;2022-11-18T08:17:33;7.10;99.90
12315;DHT22;23886;46.614;14.276;2022-11-18T08:20:00;7.10;99.90
12315;DHT22;23886;46.614;14.276;2022-11-18T08:22:27;7.00;99.90
12315;DHT22;23886;46.614;14.276;2022-11-18T08:24:54;7.00;99.90
12315;DHT22;23886;46.614;14.276;2022-11-18T08:27:22;7.00;99.90
12315;DHT22;23886;46.614;14.276;2022-11-18T08:29:50;6.90;99.90
12315;DHT22;23886;46.614;14.276;2022-11-18T08:32:16;7.00;99.90
12315;DHT22;23886;46.614;14.276;2022-11-18T08:34:43;7.00;99.90
12315;DHT22;23886;46.614;14.276;2022-11-18T08:37:10;7.00;99.90
12315;DHT22;23886;46.614;14.276;2022-11-18T08:39:37;6.90;99.90
12315;DHT22;23886;46.614;14.276;2022-11-18T08:42:04;6.90;99.90
12315;DHT22;23886;46.614;14.276;2022-11-18T08:44:33;6.90;99.90
12315;DHT22;23886;46.614;14.276;2022-11-18T08:47:00;7.00;99.90
12315;DHT22;23886;46.614;14.276;2022-11-18T08:49:27;7.00;99.90
12315;DHT22;23886;46.614;14.276;2022-11-18T08:51:54;7.00;99.90
12315;DHT22;23886;46.614;14.276;2022-11-18T08:54:21;7.00;99.90
12315;DHT22;23886;46.614;14.276;2022-11-18T08:56:48;7.10;99.90
12315;DHT22;23886;46.614;14.276;2022-11-18T08:59:15;7.10;99.90
12315;DHT22;23886;46.614;14.276;2022-11-18T09:01:44;7.00;99.90
12315;DHT22;23886;46.614;14.276;2022-11-18T09:04:11;6.90;99.90
12315;DHT22;23886;46.614;14.276;2022-11-18T09:06:38;6.90;99.90
12315;DHT22;23886;46.614;14.276;2022-11-18T09:09:05;6.90;99.90
12315;DHT22;23886;46.614;14.276;2022-11-18T09:11:33;6.90;99.90
12315;DHT22;23886;46.614;14.276;2022-11-18T09:14:00;6.80;99.90
12315;DHT22;23886;46.614;14.276;2022-11-18T09:16:29;6.80;99.90
12315;DHT22;23886;46.614;14.276;2022-11-18T09:18:58;6.90;99.90
12315;DHT22;23886;46.614;14.276;2022-11-18T09:21:26;7.00;99.90
12315;DHT22;23886;46.614;14.276;2022-11-18T09:23:53;7.10;99.90
12315;DHT22;23886;46.614;14.276;2022-11-18T09:26:21;7.20;99.90
12315;DHT22;23886;46.614;14.276;2022-11-18T09:28:51;7.20;99.90
12315;DHT22;23886;46.614;14.276;2022-11-18T09:31:18;7.10;99.90
12315;DHT22;23886;46.614;14.276;2022-11-18T09:33:45;7.20;99.90
12315;DHT22;23886;46.614;14.276;2022-11-18T09:36:16;7.20;99.90
12315;DHT22;23886;46.614;14.276;2022-11-18T09:38:43;7.20;99.90
12315;DHT22;23886;46.614;14.276;2022-11-18T09:41:29;7.10;99.90
12315;DHT22;23886;46.614;14.276;2022-11-18T09:44:07;7.00;99.90
12315;DHT22;23886;46.614;14.276;2022-11-18T09:46:45;7.00;99.90
12315;DHT22;23886;46.614;14.276;2022-11-18T09:49:18;7.10;99.90
12315;DHT22;23886;46.614;14.276;2022-11-18T09:51:50;7.00;99.90
12315;DHT22;23886;46.614;14.276;2022-11-18T09:54:20;6.90;99.90
12315;DHT22;23886;46.614;14.276;2022-11-18T09:56:48;6.90;99.90
12315;DHT22;23886;46.614;14.276;2022-11-18T09:59:20;6.90;99.90
12315;DHT22;23886;46.614;14.276;2022-11-18T10:01:48;6.80;99.90
12315;DHT22;23886;46.614;14.276;2022-11-18T10:04:29;6.90;99.90
12315;DHT22;23886;46.614;14.276;2022-11-18T10:06:58;7.00;99.90
12315;DHT22;23886;46.614;14.276;2022-11-18T10:09:29;7.00;99.90
12315;DHT22;23886;46.614;14.276;2022-11-18T10:12:21;6.90;99.90
12315;DHT22;23886;46.614;14.276;2022-11-18T10:15:11;7.00;99.90
12315;DHT22;23886;46.614;14.276;2022-11-18T10:18:07;7.00;99.90
12315;DHT22;23886;46.614;14.276;2022-11-18T10:20:45;7.00;99.90
12315;DHT22;23886;46.614;14.276;2022-11-18T10:23:19;7.10;99.90
12315;DHT22;23886;46.614;14.276;2022-11-18T10:28:45;7.10;99.90
12315;DHT22;23886;46.614;14.276;2022-11-18T10:31:12;7.10;99.90
12315;DHT22;23886;46.614;14.276;2022-11-18T10:33:42;7.10;99.90
12315;DHT22;23886;46.614;14.276;2022-11-18T10:36:28;7.10;99.90
12315;DHT22;23886;46.614;14.276;2022-11-18T10:39:09;7.20;99.90
12315;DHT22;23886;46.614;14.276;2022-11-18T10:41:44;7.20;99.90
12315;DHT22;23886;46.614;14.276;2022-11-18T10:47:28;7.40;99.90
12315;DHT22;23886;46.614;14.276;2022-11-18T10:49:57;7.40;99.90
12315;DHT22;23886;46.614;14.276;2022-11-18T10:52:26;7.50;99.90
12315;DHT22;23886;46.614;14.276;2022-11-18T10:55:25;7.60;99.90
12315;DHT22;23886;46.614;14.276;2022-11-18T10:57:55;7.70;99.90
12315;DHT22;23886;46.614;14.276;2022-11-18T11:00:48;7.80;99.90
12315;DHT22;23886;46.614;14.276;2022-11-18T11:06:34;8.00;99.90
12315;DHT22;23886;46.614;14.276;2022-11-18T11:09:09;7.90;99.90
12315;DHT22;23886;46.614;14.276;2022-11-18T11:11:39;8.00;99.90
12315;DHT22;23886;46.614;14.276;2022-11-18T11:14:20;8.10;99.90
12315;DHT22;23886;46.614;14.276;2022-11-18T11:16:56;8.30;99.90
12315;DHT22;23886;46.614;14.276;2022-11-18T11:19:59;8.40;99.90
12315;DHT22;23886;46.614;14.276;2022-11-18T11:22:27;8.60;99.90
12315;DHT22;23886;46.614;14.276;2022-11-18T11:24:55;8.70;99.90
12315;DHT22;23886;46.614;14.276;2022-11-18T11:30:53;8.70;99.90
12315;DHT22;23886;46.614;14.276;2022-11-18T11:33:36;8.50;99.90
12315;DHT22;23886;46.614;14.276;2022-11-18T11:36:19;8.30;99.90
12315;DHT22;23886;46.614;14.276;2022-11-18T11:38:58;8.30;99.90
12315;DHT22;23886;46.614;14.276;2022-11-18T11:44:40;8.10;99.90
12315;DHT22;23886;46.614;14.276;2022-11-18T11:47:23;8.10;99.90
12315;DHT22;23886;46.614;14.276;2022-11-18T11:50:29;8.00;99.90
12315;DHT22;23886;46.614;14.276;2022-11-18T11:53:44;8.10;99.90
12315;DHT22;23886;46.614;14.276;2022-11-18T11:56:17;7.90;99.90
12315;DHT22;23886;46.614;14.276;2022-11-18T11:59:09;7.90;99.90
12315;DHT22;23886;46.614;14.276;2022-11-18T12:01:51;7.80;99.90
12315;DHT22;23886;46.614;14.276;2022-11-18T12:04:32;7.80;99.90
12315;DHT22;23886;46.614;14.276;2022-11-18T12:07:31;7.80;99.90
12315;DHT22;23886;46.614;14.276;2022-11-18T12:10:21;7.80;99.90
12315;DHT22;23886;46.614;14.276;2022-11-18T12:12:57;7.80;99.90
12315;DHT22;23886;46.614;14.276;2022-11-18T12:15:39;7.70;99.90
12315;DHT22;23886;46.614;14.276;2022-11-18T12:18:13;7.70;99.90
12315;DHT22;23886;46.614;14.276;2022-11-18T12:20:47;7.70;99.90
12315;DHT22;23886;46.614;14.276;2022-11-18T12:23:16;7.70;99.90
12315;DHT22;23886;46.614;14.276;2022-11-18T12:25:56;7.80;99.90
12315;DHT22;23886;46.614;14.276;2022-11-18T12:28:29;7.70;99.90
12315;DHT22;23886;46.614;14.276;2022-11-18T12:31:31;7.80;99.90
12315;DHT22;23886;46.614;14.276;2022-11-18T12:36:45;7.90;99.90
12315;DHT22;23886;46.614;14.276;2022-11-18T12:42:44;8.00;99.90
12315;DHT22;23886;46.614;14.276;2022-11-18T12:48:33;8.20;99.90
12315;DHT22;23886;46.614;14.276;2022-11-18T12:51:06;8.20;99.90
12315;DHT22;23886;46.614;14.276;2022-11-18T12:53:40;8.20;99.90
12315;DHT22;23886;46.614;14.276;2022-11-18T12:56:19;8.20;99.90
12315;DHT22;23886;46.614;14.276;2022-11-18T12:58:48;8.40;99.90
12315;DHT22;23886;46.614;14.276;2022-11-18T13:01:18;8.40;99.90
12315;DHT22;23886;46.614;14.276;2022-11-18T13:03:46;8.30;99.90
12315;DHT22;23886;46.614;14.276;2022-11-18T13:06:24;8.30;99.90
12315;DHT22;23886;46.614;14.276;2022-11-18T13:08:55;8.30;99.90
12315;DHT22;23886;46.614;14.276;2022-11-18T13:11:24;8.20;99.90
12315;DHT22;23886;46.614;14.276;2022-11-18T13:14:14;8.20;99.90
12315;DHT22;23886;46.614;14.276;2022-11-18T13:17:00;8.10;99.90
12315;DHT22;23886;46.614;14.276;2022-11-18T13:19:54;8.10;99.90
12315;DHT22;23886;46.614;14.276;2022-11-18T13:22:21;8.00;99.90
12315;DHT22;23886;46.614;14.276;2022-11-18T13:25:23;8.10;99.90
12315;DHT22;23886;46.614;14.276;2022-11-18T13:27:57;8.10;99.90
12315;DHT22;23886;46.614;14.276;2022-11-18T13:30:29;8.10;99.90
12315;DHT22;23886;46.614;14.276;2022-11-18T13:32:58;8.10;99.90
12315;DHT22;23886;46.614;14.276;2022-11-18T13:35:25;8.20;99.90
12315;DHT22;23886;46.614;14.276;2022-11-18T13:37:55;8.10;99.90
12315;DHT22;23886;46.614;14.276;2022-11-18T13:40:26;8.20;99.90
12315;DHT22;23886;46.614;14.276;2022-11-18T13:42:54;8.20;99.90
12315;DHT22;23886;46.614;14.276;2022-11-18T13:45:24;8.10;99.90
12315;DHT22;23886;46.614;14.276;2022-11-18T13:47:54;8.00;99.90
12315;DHT22;23886;46.614;14.276;2022-11-18T13:50:29;8.00;99.90
12315;DHT22;23886;46.614;14.276;2022-11-18T13:53:03;8.10;99.90
12315;DHT22;23886;46.614;14.276;2022-11-18T13:55:35;8.00;99.90
12315;DHT22;23886;46.614;14.276;2022-11-18T13:58:10;8.00;99.90
12315;DHT22;23886;46.614;14.276;2022-11-18T14:00:54;8.00;99.90
12315;DHT22;23886;46.614;14.276;2022-11-18T14:03:24;8.10;99.90
12315;DHT22;23886;46.614;14.276;2022-11-18T14:05:53;8.10;99.90
12315;DHT22;23886;46.614;14.276;2022-11-18T14:08:25;8.10;99.90
12315;DHT22;23886;46.614;14.276;2022-11-18T14:10:54;8.00;99.90
12315;DHT22;23886;46.614;14.276;2022-11-18T14:13:26;8.00;99.90
12315;DHT22;23886;46.614;14.276;2022-11-18T14:15:53;7.90;99.90
12315;DHT22;23886;46.614;14.276;2022-11-18T14:18:29;7.90;99.90
12315;DHT22;23886;46.614;14.276;2022-11-18T14:20:58;7.90;99.90
12315;DHT22;23886;46.614;14.276;2022-11-18T14:23:27;7.90;99.90
12315;DHT22;23886;46.614;14.276;2022-11-18T14:25:57;7.90;99.90
12315;DHT22;23886;46.614;14.276;2022-11-18T14:28:27;7.90;99.90
12315;DHT22;23886;46.614;14.276;2022-11-18T14:31:00;7.90;99.90
12315;DHT22;23886;46.614;14.276;2022-11-18T14:33:32;7.90;99.90
12315;DHT22;23886;46.614;14.276;2022-11-18T14:36:00;7.90;99.90
12315;DHT22;23886;46.614;14.276;2022-11-18T14:38:33;7.80;99.90
12315;DHT22;23886;46.614;14.276;2022-11-18T14:41:06;7.80;99.90
12315;DHT22;23886;46.614;14.276;2022-11-18T14:43:33;7.80;99.90
12315;DHT22;23886;46.614;14.276;2022-11-18T14:46:02;7.70;99.90
12315;DHT22;23886;46.614;14.276;2022-11-18T14:48:30;7.70;99.90
12315;DHT22;23886;46.614;14.276;2022-11-18T14:50:58;7.70;99.90
12315;DHT22;23886;46.614;14.276;2022-11-18T14:53:25;7.70;99.90
12315;DHT22;23886;46.614;14.276;2022-11-18T14:55:52;7.70;99.90
12315;DHT22;23886;46.614;14.276;2022-11-18T14:58:22;7.70;99.90
12315;DHT22;23886;46.614;14.276;2022-11-18T15:00:49;7.70;99.90
12315;DHT22;23886;46.614;14.276;2022-11-18T15:03:16;7.80;99.90
12315;DHT22;23886;46.614;14.276;2022-11-18T15:05:43;7.80;99.90
12315;DHT22;23886;46.614;14.276;2022-11-18T15:08:10;7.90;99.90
12315;DHT22;23886;46.614;14.276;2022-11-18T15:10:38;7.80;99.90
12315;DHT22;23886;46.614;14.276;2022-11-18T15:13:05;7.70;99.90
12315;DHT22;23886;46.614;14.276;2022-11-18T15:15:33;7.80;99.90
12315;DHT22;23886;46.614;14.276;2022-11-18T15:18:00;7.80;99.90
12315;DHT22;23886;46.614;14.276;2022-11-18T15:20:27;7.80;99.90
12315;DHT22;23886;46.614;14.276;2022-11-18T15:22:54;7.80;99.90
12315;DHT22;23886;46.614;14.276;2022-11-18T15:25:21;7.90;99.90
12315;DHT22;23886;46.614;14.276;2022-11-18T15:27:48;7.90;99.90
12315;DHT22;23886;46.614;14.276;2022-11-18T15:30:16;7.80;99.90
12315;DHT22;23886;46.614;14.276;2022-11-18T15:32:44;7.70;99.90
12315;DHT22;23886;46.614;14.276;2022-11-18T15:35:12;7.60;99.90
12315;DHT22;23886;46.614;14.276;2022-11-18T15:37:40;7.50;99.90
12315;DHT22;23886;46.614;14.276;2022-11-18T15:40:07;7.50;99.90
12315;DHT22;23886;46.614;14.276;2022-11-18T15:42:35;7.50;99.90
12315;DHT22;23886;46.614;14.276;2022-11-18T15:45:03;7.40;99.90
12315;DHT22;23886;46.614;14.276;2022-11-18T15:47:30;7.40;99.90
12315;DHT22;23886;46.614;14.276;2022-11-18T15:49:59;7.30;99.90
12315;DHT22;23886;46.614;14.276;2022-11-18T15:52:26;7.20;99.90
12315;DHT22;23886;46.614;14.276;2022-11-18T15:54:53;7.10;99.90
12315;DHT22;23886;46.614;14.276;2022-11-18T15:57:20;7.00;99.90
12315;DHT22;23886;46.614;14.276;2022-11-18T15:59:47;7.10;99.90
12315;DHT22;23886;46.614;14.276;2022-11-18T16:02:14;7.10;99.90
12315;DHT22;23886;46.614;14.276;2022-11-18T16:04:41;7.10;99.90
12315;DHT22;23886;46.614;14.276;2022-11-18T16:07:09;7.00;99.90
12315;DHT22;23886;46.614;14.276;2022-11-18T16:09:36;6.90;99.90
12315;DHT22;23886;46.614;14.276;2022-11-18T16:12:21;6.90;99.90
12315;DHT22;23886;46.614;14.276;2022-11-18T16:15:05;6.80;99.90
12315;DHT22;23886;46.614;14.276;2022-11-18T16:18:04;6.80;99.90
12315;DHT22;23886;46.614;14.276;2022-11-18T16:20:31;6.70;99.90
12315;DHT22;23886;46.614;14.276;2022-11-18T16:23:00;6.70;99.90
12315;DHT22;23886;46.614;14.276;2022-11-18T16:25:27;6.70;99.90